Terminal Aerodrome Forecast
Issued by NWS Jackson, MS

Home | Current Version | Previous Version | Text Only | Print | Product List | Glossary On
Versions: 1 2 3 4 5 6 7 8 9 10 11 12 13
000
FTUS44 KJAN 181700
TAFGWO
TAF
KGWO 181720Z 1818/1918 VRB04KT P6SM SKC
     FM190000 08003KT P6SM SCT100
     FM191500 01005KT P6SM SKC=

USA.gov is the U.S. government's official web portal to all federal, state and local government web resources and services.